Time;durP1;ratioP1;P1;durP2;ratioP2;P2;SDS_P1;SDS_P2;PMS_P1;PMS_P2;Temp;Humidity;BMP_temperature;BMP_pressure;BME280_temperature;BME280_humidity;BME280_pressure;Samples;Min_cycle;Max_cycle;Signal;HPM_P1;HPM_P2
2021/07/28 00:00:30;;;;;;;8.98;7.70;;;19.30;1.00;;;;;;5027010;28;20097;-78
2021/07/28 00:02:55;;;;;;;8.52;7.72;;;19.20;1.00;;;;;;5016985;28;20097;-78
2021/07/28 00:05:21;;;;;;;8.63;7.82;;;19.20;1.00;;;;;;5016400;28;20121;-79
2021/07/28 00:07:46;;;;;;;9.27;7.95;;;19.20;1.00;;;;;;5015802;28;20061;-76
2021/07/28 00:10:12;;;;;;;11.50;7.93;;;19.10;1.00;;;;;;5016199;28;20525;-78
2021/07/28 00:12:38;;;;;;;7.80;7.00;;;19.10;1.00;;;;;;5016020;28;20026;-78
2021/07/28 00:15:04;;;;;;;8.00;7.30;;;19.20;1.00;;;;;;5015335;28;20144;-78
2021/07/28 00:17:30;;;;;;;8.73;7.93;;;19.20;1.00;;;;;;5015571;28;20111;-78
2021/07/28 00:20:01;;;;;;;8.95;8.15;;;19.10;1.00;;;;;;4998355;28;20041;-77
2021/07/28 00:25:12;;;;;;;9.50;8.38;;;19.00;1.00;;;;;;5027309;28;20586;-77
2021/07/28 00:27:38;;;;;;;8.80;7.90;;;19.10;1.00;;;;;;5010233;28;20417;-77
2021/07/28 00:30:07;;;;;;;9.10;8.20;;;19.10;1.00;;;;;;5024226;28;20026;-77
2021/07/28 00:32:33;;;;;;;8.85;8.10;;;19.20;1.00;;;;;;5016580;28;20375;-76
2021/07/28 00:34:59;;;;;;;8.90;8.00;;;19.20;1.00;;;;;;5016426;28;20044;-78
2021/07/28 00:37:24;;;;;;;10.40;7.25;;;19.20;1.00;;;;;;5014469;28;20034;-76
2021/07/28 00:39:50;;;;;;;9.57;8.30;;;19.20;1.00;;;;;;5025715;28;20443;-77
2021/07/28 00:42:16;;;;;;;9.38;8.30;;;19.20;1.00;;;;;;5017146;28;20038;-78
2021/07/28 00:44:44;;;;;;;8.70;7.90;;;19.20;1.00;;;;;;5014610;28;20037;-77
2021/07/28 00:47:11;;;;;;;8.68;7.97;;;19.20;1.00;;;;;;5014230;28;20029;-78
2021/07/28 00:49:37;;;;;;;8.27;7.55;;;19.10;1.00;;;;;;5007531;28;20032;-77
2021/07/28 00:52:05;;;;;;;8.05;7.35;;;19.10;1.00;;;;;;5019180;28;20021;-78
2021/07/28 00:54:31;;;;;;;9.30;8.50;;;19.00;1.00;;;;;;5013749;28;20050;-76
2021/07/28 00:56:58;;;;;;;8.32;7.63;;;18.90;1.00;;;;;;5018055;28;20064;-77
2021/07/28 00:59:25;;;;;;;7.63;6.93;;;19.00;1.00;;;;;;5031793;28;20030;-76
2021/07/28 01:01:52;;;;;;;8.75;7.93;;;19.00;1.00;;;;;;5014133;28;20720;-78
2021/07/28 01:04:18;;;;;;;8.85;7.95;;;19.00;1.00;;;;;;5013780;28;20500;-78
2021/07/28 01:06:44;;;;;;;8.18;7.43;;;19.00;1.00;;;;;;5013678;28;20032;-77
2021/07/28 01:09:10;;;;;;;8.00;7.30;;;18.90;1.00;;;;;;4996953;28;20112;-78
2021/07/28 01:11:36;;;;;;;8.52;7.50;;;18.90;1.00;;;;;;5015288;28;20486;-79
2021/07/28 01:14:04;;;;;;;8.88;8.05;;;18.90;1.00;;;;;;5015587;28;20018;-76
2021/07/28 01:16:36;;;;;;;9.45;8.55;;;18.90;1.00;;;;;;5023983;28;20044;-78
2021/07/28 01:19:05;;;;;;;9.88;7.50;;;18.90;1.00;;;;;;5035177;28;20033;-77
2021/07/28 01:21:31;;;;;;;8.68;7.90;;;18.90;1.00;;;;;;5016316;28;20021;-77
2021/07/28 01:23:56;;;;;;;9.52;8.23;;;18.90;1.00;;;;;;5033033;28;20140;-75
2021/07/28 01:26:23;;;;;;;8.32;7.63;;;18.90;1.00;;;;;;5031805;28;20029;-77
2021/07/28 01:28:49;;;;;;;10.70;8.75;;;18.90;1.00;;;;;;5016670;28;20041;-76
2021/07/28 01:31:16;;;;;;;8.50;7.60;;;18.90;1.00;;;;;;5024405;28;20023;-78
2021/07/28 01:33:44;;;;;;;8.52;7.72;;;18.90;1.00;;;;;;5015906;28;20021;-76
2021/07/28 01:36:18;;;;;;;8.32;7.63;;;18.90;1.00;;;;;;4999219;28;20033;-76
2021/07/28 01:38:44;;;;;;;8.45;7.50;;;18.90;1.00;;;;;;4967352;28;1064977;-77
2021/07/28 01:41:10;;;;;;;8.77;7.97;;;18.90;1.00;;;;;;5016339;28;20060;-75
2021/07/28 01:43:36;;;;;;;9.48;8.57;;;18.80;1.00;;;;;;5009158;28;20026;-76
2021/07/28 01:46:04;;;;;;;8.57;7.15;;;18.70;1.00;;;;;;5023909;28;20042;-75
2021/07/28 01:48:29;;;;;;;7.53;6.82;;;18.70;1.00;;;;;;5024682;28;20037;-76
2021/07/28 01:50:56;;;;;;;7.75;7.05;;;18.80;1.00;;;;;;5024885;28;20049;-76
2021/07/28 01:53:22;;;;;;;6.72;6.13;;;18.70;1.00;;;;;;5025841;28;20041;-77
2021/07/28 01:55:48;;;;;;;4.97;4.57;;;18.70;1.00;;;;;;5031399;28;20029;-77
2021/07/28 01:58:14;;;;;;;5.15;4.65;;;18.60;1.00;;;;;;5015342;28;20100;-76
2021/07/28 02:00:41;;;;;;;5.55;5.05;;;18.60;1.00;;;;;;5014386;28;20537;-77
2021/07/28 02:03:07;;;;;;;4.88;4.47;;;18.60;1.00;;;;;;5026956;28;20026;-75
2021/07/28 02:05:34;;;;;;;5.10;4.60;;;18.60;1.00;;;;;;5025003;28;20028;-76
2021/07/28 02:08:05;;;;;;;5.32;4.70;;;18.60;1.00;;;;;;5043711;28;20035;-75
2021/07/28 02:10:31;;;;;;;6.90;4.93;;;18.60;1.00;;;;;;5040639;28;20059;-77
2021/07/28 02:12:57;;;;;;;5.15;4.75;;;18.60;1.00;;;;;;5020444;28;20057;-77
2021/07/28 02:15:23;;;;;;;5.57;5.03;;;18.60;1.00;;;;;;5045895;28;20022;-76
2021/07/28 02:17:50;;;;;;;12.93;11.55;;;18.60;1.00;;;;;;5042586;28;20030;-76
2021/07/28 02:20:16;;;;;;;5.53;5.07;;;18.60;1.00;;;;;;5038784;28;20034;-76
2021/07/28 02:22:42;;;;;;;5.68;5.18;;;18.60;1.00;;;;;;5038120;28;20033;-76
2021/07/28 02:25:08;;;;;;;5.47;4.97;;;18.60;1.00;;;;;;5054296;28;20048;-78
2021/07/28 02:27:34;;;;;;;7.22;5.20;;;18.60;1.00;;;;;;5053681;28;20030;-76
2021/07/28 02:29:59;;;;;;;5.85;5.35;;;18.60;1.00;;;;;;5042458;28;20079;-77
2021/07/28 02:32:25;;;;;;;6.22;5.72;;;18.60;1.00;;;;;;5055090;28;20072;-77
2021/07/28 02:34:51;;;;;;;7.40;6.65;;;18.50;1.00;;;;;;5047913;28;20083;-77
2021/07/28 02:37:16;;;;;;;6.60;6.05;;;18.60;1.00;;;;;;5044740;28;20006;-78
2021/07/28 02:39:42;;;;;;;6.13;5.53;;;18.60;1.00;;;;;;5035803;28;20038;-76
2021/07/28 02:42:07;;;;;;;7.03;6.43;;;18.60;1.00;;;;;;5014586;28;20038;-78
2021/07/28 02:44:33;;;;;;;7.45;6.75;;;18.70;1.00;;;;;;5015259;28;20045;-77
2021/07/28 02:46:58;;;;;;;7.07;6.47;;;18.70;1.00;;;;;;5014207;28;20065;-77
2021/07/28 02:49:24;;;;;;;7.15;6.55;;;18.70;1.00;;;;;;5017124;28;20029;-77
2021/07/28 02:51:49;;;;;;;6.90;6.30;;;18.60;1.00;;;;;;5009353;28;20034;-78
2021/07/28 02:54:17;;;;;;;6.95;6.35;;;18.60;1.00;;;;;;5018383;28;20026;-76
2021/07/28 02:56:43;;;;;;;7.75;6.30;;;18.60;1.00;;;;;;5018005;28;20096;-77
2021/07/28 02:59:08;;;;;;;7.05;6.40;;;18.60;1.00;;;;;;5017169;28;20030;-77
2021/07/28 03:01:34;;;;;;;6.03;5.43;;;18.50;1.00;;;;;;5022074;28;20021;-78
2021/07/28 03:04:00;;;;;;;6.15;5.55;;;18.50;1.00;;;;;;5029832;28;20044;-76
2021/07/28 03:06:25;;;;;;;5.95;5.35;;;18.40;1.00;;;;;;5018048;28;20040;-78
2021/07/28 03:08:51;;;;;;;5.75;5.25;;;18.50;1.00;;;;;;5016791;28;20084;-78
2021/07/28 03:11:16;;;;;;;5.55;5.15;;;18.50;1.00;;;;;;5028604;28;20445;-77
2021/07/28 03:13:42;;;;;;;6.32;5.60;;;18.50;1.00;;;;;;5036160;28;20381;-78
2021/07/28 03:16:11;;;;;;;6.00;5.45;;;18.40;1.00;;;;;;5008875;28;20562;-77
2021/07/28 03:18:37;;;;;;;5.65;5.15;;;18.30;1.00;;;;;;5016872;28;20025;-78
2021/07/28 03:21:02;;;;;;;8.02;5.05;;;18.30;1.00;;;;;;5017345;28;20032;-76
2021/07/28 03:23:28;;;;;;;5.43;4.93;;;18.30;1.00;;;;;;5023832;28;20543;-77
2021/07/28 03:25:54;;;;;;;5.78;5.03;;;18.30;1.00;;;;;;5017935;28;20026;-77
2021/07/28 03:28:19;;;;;;;6.93;5.97;;;18.20;1.00;;;;;;5002352;28;20033;-77
2021/07/28 03:30:45;;;;;;;5.80;5.35;;;18.20;1.00;;;;;;5024145;28;20028;-76
2021/07/28 03:33:11;;;;;;;5.50;5.00;;;18.20;1.00;;;;;;5031369;28;20038;-77
2021/07/28 03:35:36;;;;;;;5.78;5.20;;;18.10;1.00;;;;;;5036407;28;20030;-77
2021/07/28 03:38:02;;;;;;;6.55;5.45;;;18.10;1.00;;;;;;4999531;28;20048;-75
2021/07/28 03:40:29;;;;;;;6.20;5.63;;;18.10;1.00;;;;;;5023239;28;20444;-76
2021/07/28 03:42:54;;;;;;;5.82;5.32;;;18.10;1.00;;;;;;5025249;28;20022;-78
2021/07/28 03:45:20;;;;;;;6.80;6.20;;;18.10;1.00;;;;;;5017633;28;20037;-78
2021/07/28 03:47:45;;;;;;;6.70;6.13;;;18.10;1.00;;;;;;5017177;28;20045;-77
2021/07/28 03:50:11;;;;;;;5.72;5.22;;;18.00;1.00;;;;;;5016838;28;20022;-76
2021/07/28 03:52:37;;;;;;;6.38;5.78;;;17.90;1.00;;;;;;5016968;28;20028;-76
2021/07/28 03:55:03;;;;;;;6.35;5.53;;;17.90;1.00;;;;;;5025752;28;20471;-78
2021/07/28 03:57:29;;;;;;;7.43;6.25;;;17.90;1.00;;;;;;5016375;28;20109;-77
2021/07/28 03:59:54;;;;;;;6.05;5.43;;;17.90;1.00;;;;;;5014716;28;20075;-78
2021/07/28 04:02:20;;;;;;;6.72;4.93;;;17.90;1.00;;;;;;5027401;28;20085;-78
2021/07/28 04:04:45;;;;;;;6.18;5.57;;;17.90;1.00;;;;;;5020267;28;20058;-78
2021/07/28 04:07:11;;;;;;;5.85;5.30;;;18.00;1.00;;;;;;5017020;28;20037;-78
2021/07/28 04:09:37;;;;;;;6.70;5.15;;;18.00;1.00;;;;;;5016934;28;20022;-78
2021/07/28 04:12:03;;;;;;;5.97;5.47;;;18.10;1.00;;;;;;5015553;28;20026;-76
2021/07/28 04:14:29;;;;;;;5.53;5.03;;;18.10;1.00;;;;;;5025291;28;20024;-77
2021/07/28 04:16:55;;;;;;;5.30;4.80;;;18.20;1.00;;;;;;5034614;28;20440;-77
2021/07/28 04:19:20;;;;;;;5.63;5.13;;;18.20;1.00;;;;;;5033060;28;20029;-77
2021/07/28 04:21:46;;;;;;;9.20;5.78;;;18.20;1.00;;;;;;5014958;28;20076;-78
2021/07/28 04:24:11;;;;;;;6.85;5.25;;;18.20;1.00;;;;;;5015077;28;20029;-77
2021/07/28 04:26:37;;;;;;;5.82;5.32;;;18.20;1.00;;;;;;5018508;28;20083;-77
2021/07/28 04:29:02;;;;;;;7.90;5.50;;;18.30;1.00;;;;;;5023797;28;20029;-77
2021/07/28 04:31:28;;;;;;;5.75;5.25;;;18.30;1.00;;;;;;5015337;28;20029;-75
2021/07/28 04:33:54;;;;;;;6.05;4.82;;;18.40;1.00;;;;;;5014709;28;20057;-77
2021/07/28 04:36:19;;;;;;;4.72;4.32;;;18.40;1.00;;;;;;5014420;28;20102;-76
2021/07/28 04:38:45;;;;;;;5.30;4.80;;;18.40;1.00;;;;;;5036125;22;20045;-73
2021/07/28 04:41:10;;;;;;;6.75;4.75;;;18.40;1.00;;;;;;5021520;28;20041;-74
2021/07/28 04:43:36;;;;;;;5.70;4.88;;;18.50;1.00;;;;;;5017004;28;20405;-73
2021/07/28 04:46:03;;;;;;;5.80;4.78;;;18.50;1.00;;;;;;5013781;28;20034;-73
2021/07/28 04:48:29;;;;;;;5.50;5.00;;;18.60;1.00;;;;;;5020659;28;20033;-74
2021/07/28 04:50:56;;;;;;;5.85;5.18;;;18.70;1.00;;;;;;5023979;28;20034;-72
2021/07/28 04:53:22;;;;;;;5.85;4.85;;;18.80;1.00;;;;;;5031287;28;20076;-74
2021/07/28 04:55:55;;;;;;;6.25;5.32;;;18.80;1.00;;;;;;5006338;28;20397;-74
2021/07/28 04:58:21;;;;;;;12.38;5.70;;;18.80;1.00;;;;;;5024559;28;20401;-74
2021/07/28 05:00:47;;;;;;;5.63;5.13;;;19.00;1.00;;;;;;5002127;28;20117;-74
2021/07/28 05:03:13;;;;;;;5.28;4.38;;;19.20;1.00;;;;;;5032101;28;20073;-73
2021/07/28 05:05:39;;;;;;;6.28;5.28;;;19.40;1.00;;;;;;5043266;28;20018;-73
2021/07/28 05:08:05;;;;;;;7.10;5.20;;;19.30;1.00;;;;;;5029079;28;20045;-74
2021/07/28 05:10:30;;;;;;;5.55;5.05;;;19.40;1.00;;;;;;5027920;28;20034;-73
2021/07/28 05:12:56;;;;;;;5.18;4.68;;;19.20;1.00;;;;;;5018279;28;20371;-73
2021/07/28 05:15:21;;;;;;;10.75;5.90;;;19.10;1.00;;;;;;5014116;28;20049;-73
2021/07/28 05:17:47;;;;;;;9.25;5.28;;;19.20;1.00;;;;;;5001386;28;20503;-72
2021/07/28 05:20:13;;;;;;;9.82;8.52;;;19.20;1.00;;;;;;5022239;28;20417;-74
2021/07/28 05:22:39;;;;;;;7.93;7.13;;;19.10;1.00;;;;;;5021714;28;20036;-73
2021/07/28 05:25:05;;;;;;;6.75;5.93;;;19.10;1.00;;;;;;5013188;28;20033;-73
2021/07/28 05:27:31;;;;;;;5.88;5.32;;;19.10;1.00;;;;;;5013075;28;20383;-73
2021/07/28 05:29:57;;;;;;;6.10;5.07;;;19.10;1.00;;;;;;5021233;28;20461;-74
2021/07/28 05:32:23;;;;;;;5.63;5.00;;;19.20;1.00;;;;;;5026759;28;20056;-74
2021/07/28 05:34:52;;;;;;;6.13;4.97;;;19.20;1.00;;;;;;5032024;28;20425;-74
2021/07/28 05:37:18;;;;;;;9.02;5.35;;;19.20;1.00;;;;;;5030627;28;20025;-74
2021/07/28 05:39:44;;;;;;;7.45;6.47;;;19.20;1.00;;;;;;5032093;28;20149;-74
2021/07/28 05:42:10;;;;;;;7.63;5.13;;;19.20;1.00;;;;;;5025484;28;20041;-73
2021/07/28 05:44:35;;;;;;;6.07;5.47;;;19.20;1.00;;;;;;5017345;28;20060;-74
2021/07/28 05:47:01;;;;;;;10.45;5.70;;;19.30;1.00;;;;;;5012705;28;20029;-74
2021/07/28 05:49:27;;;;;;;9.00;5.22;;;19.40;1.00;;;;;;5028041;28;20530;-74
2021/07/28 05:51:53;;;;;;;11.25;5.70;;;19.50;1.00;;;;;;5012897;28;20026;-73
2021/07/28 05:54:19;;;;;;;5.70;5.10;;;19.40;1.00;;;;;;5006343;28;20026;-72
2021/07/28 05:56:44;;;;;;;5.55;5.05;;;19.40;1.00;;;;;;5028012;28;20080;-74
2021/07/28 05:59:10;;;;;;;12.73;6.15;;;19.40;1.00;;;;;;4995986;28;20048;-75
2021/07/28 06:01:35;;;;;;;6.03;5.07;;;19.40;1.00;;;;;;4996130;28;20397;-74
2021/07/28 06:04:01;;;;;;;6.20;5.65;;;19.40;1.00;;;;;;5021048;28;20038;-73
2021/07/28 06:06:27;;;;;;;5.95;5.25;;;19.40;1.00;;;;;;5021808;28;20165;-74
2021/07/28 06:08:55;;;;;;;7.53;5.45;;;19.50;1.00;;;;;;5003721;28;20033;-73
2021/07/28 06:11:22;;;;;;;8.77;5.15;;;19.40;1.00;;;;;;5018952;28;20017;-74
2021/07/28 06:13:47;;;;;;;8.38;5.13;;;19.50;1.00;;;;;;5016357;28;20137;-74
2021/07/28 06:16:13;;;;;;;4.78;4.38;;;19.50;1.00;;;;;;5021383;28;20058;-74
2021/07/28 06:18:39;;;;;;;6.13;4.20;;;19.60;1.00;;;;;;5028469;28;20113;-74
2021/07/28 06:21:05;;;;;;;4.60;4.20;;;19.50;1.00;;;;;;5016390;28;20044;-74
2021/07/28 06:23:30;;;;;;;6.10;4.35;;;19.50;1.00;;;;;;5022058;28;20026;-74
2021/07/28 06:25:56;;;;;;;5.50;4.50;;;19.50;1.00;;;;;;5034442;28;20064;-74
2021/07/28 06:28:23;;;;;;;6.30;4.65;;;19.50;1.00;;;;;;5020787;28;20033;-74
2021/07/28 06:30:52;;;;;;;5.35;4.82;;;19.60;1.00;;;;;;5031217;28;20044;-73
2021/07/28 06:33:21;;;;;;;4.45;4.05;;;19.60;1.00;;;;;;5032122;28;20396;-73
2021/07/28 06:35:48;;;;;;;6.07;4.75;;;19.60;1.00;;;;;;5023740;28;20029;-73
2021/07/28 06:38:14;;;;;;;4.50;4.10;;;19.50;1.00;;;;;;5021298;28;20037;-72
2021/07/28 06:40:40;;;;;;;4.50;4.05;;;19.50;1.00;;;;;;5036678;28;20079;-73
2021/07/28 06:43:05;;;;;;;5.95;5.22;;;19.50;1.00;;;;;;5036176;28;20025;-73
2021/07/28 06:45:32;;;;;;;6.60;4.25;;;19.40;1.00;;;;;;5024131;28;20028;-73
2021/07/28 06:47:57;;;;;;;4.13;3.72;;;19.40;1.00;;;;;;5036729;28;20029;-73
2021/07/28 06:50:23;;;;;;;4.90;4.40;;;19.40;1.00;;;;;;5026558;28;20099;-73
2021/07/28 06:52:48;;;;;;;4.97;4.57;;;19.30;1.00;;;;;;5030612;28;20041;-73
2021/07/28 06:55:14;;;;;;;4.90;4.45;;;19.20;1.00;;;;;;5028207;28;20045;-73
2021/07/28 06:57:40;;;;;;;4.90;4.40;;;19.10;1.00;;;;;;5014813;28;20030;-73
2021/07/28 07:00:07;;;;;;;5.85;4.30;;;19.10;1.00;;;;;;5031223;28;20033;-74
2021/07/28 07:02:33;;;;;;;5.65;4.95;;;19.00;1.00;;;;;;5032419;28;20520;-73
2021/07/28 07:04:58;;;;;;;6.05;5.22;;;18.90;1.00;;;;;;5014059;28;20030;-74
2021/07/28 07:07:24;;;;;;;7.10;5.13;;;18.90;1.00;;;;;;5014172;28;20064;-74
2021/07/28 07:09:52;;;;;;;5.82;5.18;;;18.90;1.00;;;;;;5028507;28;20041;-74
2021/07/28 07:12:18;;;;;;;5.70;4.65;;;19.00;1.00;;;;;;5031498;28;20014;-74
2021/07/28 07:14:45;;;;;;;7.57;4.60;;;19.10;1.00;;;;;;5018385;28;20032;-73
2021/07/28 07:17:10;;;;;;;6.82;5.05;;;19.20;1.00;;;;;;5020670;28;20026;-75
2021/07/28 07:19:36;;;;;;;5.65;4.90;;;19.30;1.00;;;;;;5037736;28;20048;-72
2021/07/28 07:22:02;;;;;;;4.88;4.35;;;19.20;1.00;;;;;;5029759;28;20026;-73
2021/07/28 07:24:27;;;;;;;6.47;4.38;;;19.40;1.00;;;;;;5025738;28;20026;-72
2021/07/28 07:26:53;;;;;;;5.15;4.65;;;19.30;1.00;;;;;;5023405;28;20030;-73
2021/07/28 07:29:18;;;;;;;7.75;6.95;;;19.30;1.00;;;;;;5025731;28;20022;-73
2021/07/28 07:31:44;;;;;;;5.47;4.95;;;19.40;1.00;;;;;;5030129;28;20067;-73
2021/07/28 07:34:09;;;;;;;5.68;5.03;;;19.30;1.00;;;;;;5016479;28;20048;-73
2021/07/28 07:36:35;;;;;;;19.30;17.25;;;19.40;1.00;;;;;;5017764;28;20030;-77
2021/07/28 07:39:02;;;;;;;5.88;5.30;;;19.40;1.00;;;;;;5036679;28;20033;-72
2021/07/28 07:41:29;;;;;;;6.32;5.68;;;19.50;1.00;;;;;;5014930;28;20034;-73
2021/07/28 07:43:57;;;;;;;7.90;4.68;;;19.40;1.00;;;;;;5034517;28;20046;-72
2021/07/28 07:46:24;;;;;;;5.00;4.47;;;19.60;1.00;;;;;;5010168;28;20030;-72
2021/07/28 07:48:49;;;;;;;4.30;3.88;;;19.70;1.00;;;;;;5028868;28;20099;-72
2021/07/28 07:51:15;;;;;;;6.53;4.30;;;19.80;1.00;;;;;;5047153;28;20513;-73
2021/07/28 07:53:41;;;;;;;5.43;4.30;;;19.80;1.00;;;;;;5042466;28;20029;-74
2021/07/28 07:56:06;;;;;;;5.50;4.10;;;19.80;1.00;;;;;;5036086;28;20394;-74
2021/07/28 07:58:35;;;;;;;8.07;4.63;;;19.80;1.00;;;;;;5034931;28;20029;-73
2021/07/28 08:01:12;;;;;;;4.72;4.22;;;19.80;1.00;;;;;;5037545;28;20029;-72
2021/07/28 08:03:40;;;;;;;5.80;4.25;;;19.60;1.00;;;;;;5030169;28;20056;-74
2021/07/28 08:06:08;;;;;;;5.95;5.45;;;19.60;1.00;;;;;;5031422;28;20037;-73
2021/07/28 08:08:55;;;;;;;6.78;4.53;;;19.50;1.00;;;;;;5067223;28;20028;-72
2021/07/28 08:11:20;;;;;;;6.15;4.25;;;19.60;1.00;;;;;;5067198;28;20060;-72
2021/07/28 08:13:48;;;;;;;6.45;4.93;;;19.50;1.00;;;;;;5055679;28;20017;-74
2021/07/28 08:16:54;;;;;;;5.40;4.90;;;19.50;1.00;;;;;;5069823;28;20100;-73
2021/07/28 08:19:23;;;;;;;5.47;4.22;;;19.50;1.00;;;;;;5042360;28;20040;-73
2021/07/28 08:21:49;;;;;;;5.55;4.57;;;19.50;1.00;;;;;;5056299;28;20028;-74
2021/07/28 08:24:16;;;;;;;5.82;4.40;;;19.50;1.00;;;;;;5054583;28;20115;-73
2021/07/28 08:26:42;;;;;;;4.82;4.43;;;19.50;1.00;;;;;;5054413;28;20465;-74
2021/07/28 08:29:07;;;;;;;5.20;4.47;;;19.40;1.00;;;;;;5054281;28;20059;-73
2021/07/28 08:31:33;;;;;;;5.88;4.95;;;19.50;1.00;;;;;;5054489;28;20029;-72
2021/07/28 08:34:04;;;;;;;6.30;4.80;;;19.50;1.00;;;;;;5039876;28;20028;-72
2021/07/28 08:36:30;;;;;;;5.28;4.57;;;19.70;1.00;;;;;;5060313;28;20025;-73
2021/07/28 08:38:55;;;;;;;7.43;4.63;;;19.80;1.00;;;;;;5053933;28;20051;-73
2021/07/28 08:41:25;;;;;;;5.45;4.20;;;19.90;1.00;;;;;;5054324;28;20104;-73
2021/07/28 08:44:34;;;;;;;5.80;5.18;;;19.90;1.00;;;;;;4999227;28;20049;-72
2021/07/28 08:46:59;;;;;;;7.07;4.78;;;20.00;99.90;;;;;;5020394;28;20053;-74
2021/07/28 08:49:26;;;;;;;5.55;4.97;;;20.00;99.90;;;;;;5015339;28;20030;-73
2021/07/28 08:51:53;;;;;;;6.07;4.15;;;20.10;99.90;;;;;;5014588;28;20073;-73
2021/07/28 08:54:18;;;;;;;5.40;4.93;;;20.00;99.90;;;;;;4980141;28;20018;-71
2021/07/28 08:56:44;;;;;;;4.85;4.32;;;20.10;99.90;;;;;;5014037;28;20033;-73
2021/07/28 08:59:30;;;;;;;4.45;3.90;;;20.20;99.90;;;;;;4996876;28;20026;-73
2021/07/28 09:01:56;;;;;;;5.38;4.30;;;20.20;99.90;;;;;;5014493;28;20097;-73
2021/07/28 09:04:23;;;;;;;5.32;4.65;;;20.40;99.90;;;;;;5014885;28;20105;-74
2021/07/28 09:06:49;;;;;;;5.63;4.72;;;20.70;99.90;;;;;;5015910;28;20080;-72
2021/07/28 09:09:14;;;;;;;8.93;4.50;;;20.70;99.90;;;;;;5021502;28;20462;-73
2021/07/28 09:11:54;;;;;;;4.88;3.95;;;20.90;99.90;;;;;;5016907;28;20021;-73
2021/07/28 09:14:24;;;;;;;5.80;3.97;;;20.90;99.90;;;;;;5015205;28;20022;-73
2021/07/28 09:16:51;;;;;;;6.30;4.15;;;20.90;99.90;;;;;;5014022;28;20145;-73
2021/07/28 09:19:43;;;;;;;5.15;3.40;;;21.00;99.90;;;;;;5013461;28;20025;-73
2021/07/28 09:22:10;;;;;;;5.05;4.00;;;21.20;9.30;;;;;;5013582;28;20068;-72
2021/07/28 09:24:37;;;;;;;5.07;3.58;;;21.50;1.00;;;;;;5014548;28;20044;-73
2021/07/28 09:27:04;;;;;;;4.72;4.13;;;21.50;1.00;;;;;;5013747;28;20030;-74
2021/07/28 09:29:30;;;;;;;5.10;3.50;;;21.80;99.90;;;;;;4997309;28;20092;-74
2021/07/28 09:32:04;;;;;;;7.80;3.70;;;21.90;99.90;;;;;;5014215;28;20025;-73
2021/07/28 09:34:38;;;;;;;7.32;4.15;;;22.10;99.90;;;;;;5013270;28;20041;-73
2021/07/28 09:37:10;;;;;;;11.95;4.10;;;22.20;19.10;;;;;;5013708;28;20109;-73
2021/07/28 09:39:37;;;;;;;6.25;3.40;;;22.20;1.00;;;;;;5013048;28;20164;-73
2021/07/28 09:42:18;;;;;;;8.93;4.85;;;22.20;99.90;;;;;;5013695;28;20338;-73
2021/07/28 09:44:46;;;;;;;4.07;3.67;;;22.40;99.90;;;;;;5013385;28;20033;-73
2021/07/28 09:47:19;;;;;;;4.18;3.28;;;22.50;99.90;;;;;;5014253;28;20029;-73
2021/07/28 09:49:47;;;;;;;4.78;4.05;;;22.60;99.90;;;;;;5014979;28;20087;-73
2021/07/28 09:52:20;;;;;;;4.82;3.65;;;22.60;99.90;;;;;;5033566;28;20033;-74
2021/07/28 09:54:47;;;;;;;5.95;3.53;;;22.70;99.90;;;;;;5014491;28;20084;-73
2021/07/28 09:57:21;;;;;;;4.78;3.30;;;22.50;99.90;;;;;;5012545;28;20026;-74
2021/07/28 09:59:59;;;;;;;4.97;2.78;;;22.60;99.90;;;;;;4996994;28;20037;-73
2021/07/28 10:02:24;;;;;;;5.40;3.08;;;22.90;99.90;;;;;;5015695;28;20033;-74
2021/07/28 10:04:52;;;;;;;4.03;2.92;;;23.20;99.90;;;;;;5035322;28;20374;-74
2021/07/28 10:07:20;;;;;;;5.18;4.03;;;23.40;99.90;;;;;;5035759;28;20022;-73
2021/07/28 10:09:55;;;;;;;5.53;3.05;;;23.30;99.90;;;;;;5001635;28;20025;-73
2021/07/28 10:12:22;;;;;;;6.53;2.67;;;23.90;99.90;;;;;;5040429;28;20572;-73
2021/07/28 10:14:49;;;;;;;3.47;3.10;;;23.70;99.90;;;;;;5038910;28;20040;-73
2021/07/28 10:17:14;;;;;;;3.80;3.13;;;23.30;99.90;;;;;;5042902;28;20499;-74
2021/07/28 10:19:40;;;;;;;3.72;3.42;;;23.10;99.90;;;;;;5050800;28;20044;-73
2021/07/28 10:22:07;;;;;;;6.50;3.47;;;23.10;99.90;;;;;;5047390;28;20028;-75
2021/07/28 10:24:34;;;;;;;6.63;3.75;;;23.20;99.90;;;;;;5048432;28;20500;-74
2021/07/28 10:27:01;;;;;;;3.97;3.28;;;23.10;99.90;;;;;;5052866;28;20028;-75
2021/07/28 10:29:27;;;;;;;5.25;3.22;;;22.90;99.90;;;;;;5052075;28;20025;-74
2021/07/28 10:31:54;;;;;;;3.60;3.10;;;22.90;99.90;;;;;;5052760;28;20037;-74
2021/07/28 10:34:31;;;;;;;4.55;3.17;;;22.70;99.90;;;;;;5052741;28;20024;-74
2021/07/28 10:37:10;;;;;;;5.80;3.08;;;22.70;99.90;;;;;;5052095;28;20392;-74
2021/07/28 10:39:47;;;;;;;5.45;2.90;;;22.70;99.90;;;;;;5052172;28;20037;-73
2021/07/28 10:42:14;;;;;;;4.85;3.00;;;22.60;99.90;;;;;;5020519;28;20022;-72
2021/07/28 10:44:59;;;;;;;4.57;3.13;;;22.80;99.90;;;;;;5012389;28;20061;-72
2021/07/28 10:47:45;;;;;;;3.50;3.15;;;22.80;99.90;;;;;;5002403;28;20037;-72
2021/07/28 10:50:25;;;;;;;5.28;3.10;;;22.60;99.90;;;;;;5023841;28;20030;-72
2021/07/28 10:52:55;;;;;;;4.40;3.38;;;22.40;99.90;;;;;;5013845;28;20073;-74
2021/07/28 10:55:24;;;;;;;3.47;3.20;;;22.50;99.90;;;;;;5013442;28;20053;-71
2021/07/28 10:57:56;;;;;;;5.05;3.20;;;22.70;99.90;;;;;;5013982;28;20079;-71
2021/07/28 11:00:39;;;;;;;3.80;3.40;;;23.20;99.90;;;;;;5012455;28;20445;-72
2021/07/28 11:03:08;;;;;;;4.13;3.20;;;23.40;99.90;;;;;;5013112;28;20104;-73
2021/07/28 11:05:38;;;;;;;3.22;2.85;;;23.40;99.90;;;;;;5013164;28;20022;-73
2021/07/28 11:10:30;;;;;;;5.47;3.25;;;23.00;99.90;;;;;;5016823;28;20103;-73
2021/07/28 11:12:58;;;;;;;4.03;3.72;;;23.00;99.90;;;;;;5020842;28;20065;-73
2021/07/28 11:15:24;;;;;;;4.20;3.03;;;22.90;99.90;;;;;;5018931;28;20030;-71
2021/07/28 11:17:54;;;;;;;5.57;3.50;;;23.00;99.90;;;;;;5016238;28;20078;-73
2021/07/28 11:20:35;;;;;;;3.90;3.10;;;23.00;99.90;;;;;;5017125;28;20034;-73
2021/07/28 11:23:28;;;;;;;3.67;3.33;;;23.30;99.90;;;;;;5017441;28;20033;-73
2021/07/28 11:25:56;;;;;;;4.57;3.17;;;23.80;99.90;;;;;;5017538;28;20049;-73
2021/07/28 11:28:22;;;;;;;8.55;3.60;;;23.80;99.90;;;;;;5018533;28;20086;-73
2021/07/28 11:30:59;;;;;;;7.18;3.08;;;24.10;99.90;;;;;;5002309;28;20076;-73
2021/07/28 11:33:25;;;;;;;3.20;2.90;;;24.40;99.90;;;;;;4999270;28;20021;-73
2021/07/28 11:35:52;;;;;;;3.47;3.17;;;24.30;99.90;;;;;;4999907;28;20025;-71
2021/07/28 11:38:20;;;;;;;5.85;3.30;;;24.20;99.90;;;;;;5016395;28;20042;-73
2021/07/28 11:40:51;;;;;;;4.82;3.47;;;24.10;99.90;;;;;;5016428;28;20029;-74
2021/07/28 11:43:27;;;;;;;4.57;3.55;;;24.00;99.90;;;;;;5016536;28;20033;-72
2021/07/28 11:45:57;;;;;;;5.35;3.38;;;23.80;99.90;;;;;;4998723;28;20124;-73
2021/07/28 11:48:28;;;;;;;5.00;3.00;;;23.70;99.90;;;;;;5019007;28;20474;-73
2021/07/28 11:50:54;;;;;;;5.85;3.47;;;24.10;99.90;;;;;;5016515;28;20543;-74
2021/07/28 11:53:27;;;;;;;4.10;3.10;;;24.50;99.90;;;;;;5016351;28;20030;-73
2021/07/28 11:55:53;;;;;;;4.15;3.08;;;24.10;99.90;;;;;;4999897;28;20053;-72
2021/07/28 11:58:20;;;;;;;3.65;3.00;;;24.10;99.90;;;;;;5017429;28;20026;-72
2021/07/28 12:00:49;;;;;;;3.90;3.55;;;24.10;99.90;;;;;;5029460;28;20073;-73
2021/07/28 12:03:28;;;;;;;4.22;3.08;;;24.00;99.90;;;;;;5026580;28;20045;-72
2021/07/28 12:05:58;;;;;;;4.00;3.17;;;24.60;99.90;;;;;;5040676;28;20023;-72
2021/07/28 12:08:34;;;;;;;5.20;3.15;;;24.50;99.90;;;;;;5038928;28;20060;-73
2021/07/28 12:11:08;;;;;;;3.00;2.70;;;24.50;99.90;;;;;;5037413;28;20022;-73
2021/07/28 12:13:43;;;;;;;2.67;2.47;;;24.50;99.90;;;;;;5039017;28;20021;-73
2021/07/28 12:16:09;;;;;;;3.78;2.70;;;24.30;99.90;;;;;;5020969;28;20032;-72
2021/07/28 12:19:04;;;;;;;4.82;3.58;;;24.30;99.90;;;;;;5038306;28;20029;-73
2021/07/28 12:21:53;;;;;;;2.95;2.75;;;24.50;99.90;;;;;;5019368;28;20029;-72
2021/07/28 12:24:33;;;;;;;3.20;2.90;;;24.80;99.90;;;;;;5040143;28;20028;-71
2021/07/28 12:27:29;;;;;;;4.25;2.85;;;24.70;99.90;;;;;;5039201;28;20071;-74
2021/07/28 12:30:18;;;;;;;3.20;2.92;;;24.90;99.90;;;;;;5035639;28;20417;-73
2021/07/28 12:32:45;;;;;;;6.07;3.20;;;24.90;99.90;;;;;;5017033;28;20026;-72
2021/07/28 12:35:14;;;;;;;3.53;2.95;;;24.80;99.90;;;;;;5035584;28;20081;-72
2021/07/28 12:37:40;;;;;;;4.13;3.13;;;25.00;99.90;;;;;;5035825;28;20033;-74
2021/07/28 12:40:06;;;;;;;3.47;3.03;;;25.00;99.90;;;;;;5018296;28;20113;-73
2021/07/28 12:42:32;;;;;;;3.20;2.90;;;25.00;99.90;;;;;;5035263;28;20084;-74
2021/07/28 12:44:58;;;;;;;4.38;2.83;;;25.30;99.90;;;;;;5037860;28;20025;-74
2021/07/28 12:47:24;;;;;;;8.38;2.80;;;25.40;99.90;;;;;;5046666;28;20086;-73
2021/07/28 12:49:50;;;;;;;5.65;2.97;;;25.30;99.90;;;;;;5055359;28;20021;-74
2021/07/28 12:52:16;;;;;;;4.10;2.85;;;25.40;99.90;;;;;;5055198;28;20021;-72
2021/07/28 12:54:41;;;;;;;3.47;2.80;;;25.40;99.90;;;;;;5055051;28;20080;-72
2021/07/28 12:57:07;;;;;;;5.70;2.75;;;25.60;99.90;;;;;;5037348;28;20037;-74
2021/07/28 12:59:32;;;;;;;3.78;2.80;;;25.70;99.90;;;;;;5054826;28;20017;-73
2021/07/28 13:02:01;;;;;;;4.95;2.92;;;25.90;99.90;;;;;;5054262;28;20021;-73